Montreal, Canada
Current Conditions -  °F | °C
As of 9:00 AM on Sunday 28 Dec 2014 (Local Time) from CYHU Reporting Station
Clear Clear  
Wind Chill: 31°   Ceiling: Unl
Heat Index: 41°   Visibility: 9mi
Dew Point: 32°   Wind: 22mph
Humidity: 70%   Direction: 250°WSW
Pressure: 29.74"   Gusts: NA
Location:  45.51°N, 73.55°W
Report Text: CYHU 281400Z AUTO 25019KT 9SM CLR 05/M00 A2974 RMK SLP070
Loading
Personal Weather Stations






























Interactive Weather Map New forecast layout! Learn more

10-Day Weather Forecast

Advertisements
Track Severe Weather on mobile